sensor_id;sensor_type;location;lat;lon;timestamp;temperature;humidity
18173;DHT22;9211;48.818;9.312;2022-08-01T00:02:01;23.80;85.70
18173;DHT22;9211;48.818;9.312;2022-08-01T00:04:28;23.80;85.80
18173;DHT22;9211;48.818;9.312;2022-08-01T00:06:55;23.80;85.80
18173;DHT22;9211;48.818;9.312;2022-08-01T00:09:22;23.80;86.00
18173;DHT22;9211;48.818;9.312;2022-08-01T00:11:49;23.80;85.90
18173;DHT22;9211;48.818;9.312;2022-08-01T00:14:18;23.80;86.00
18173;DHT22;9211;48.818;9.312;2022-08-01T00:16:45;23.70;86.80
18173;DHT22;9211;48.818;9.312;2022-08-01T00:19:12;23.80;86.20
18173;DHT22;9211;48.818;9.312;2022-08-01T00:21:39;23.70;86.10
18173;DHT22;9211;48.818;9.312;2022-08-01T00:24:06;23.70;86.30
18173;DHT22;9211;48.818;9.312;2022-08-01T00:26:34;23.70;86.40
18173;DHT22;9211;48.818;9.312;2022-08-01T00:29:01;23.70;86.50
18173;DHT22;9211;48.818;9.312;2022-08-01T00:31:29;23.70;86.90
18173;DHT22;9211;48.818;9.312;2022-08-01T00:33:56;23.70;86.80
18173;DHT22;9211;48.818;9.312;2022-08-01T00:36:23;23.70;87.00
18173;DHT22;9211;48.818;9.312;2022-08-01T00:38:50;23.60;87.30
18173;DHT22;9211;48.818;9.312;2022-08-01T00:41:17;23.60;87.50
18173;DHT22;9211;48.818;9.312;2022-08-01T00:43:44;23.60;87.60
18173;DHT22;9211;48.818;9.312;2022-08-01T00:46:11;23.60;87.70
18173;DHT22;9211;48.818;9.312;2022-08-01T00:48:40;23.60;88.00
18173;DHT22;9211;48.818;9.312;2022-08-01T00:51:07;23.60;87.90
18173;DHT22;9211;48.818;9.312;2022-08-01T00:53:35;23.50;88.50
18173;DHT22;9211;48.818;9.312;2022-08-01T00:56:02;23.50;88.70
18173;DHT22;9211;48.818;9.312;2022-08-01T00:58:29;23.40;89.30
18173;DHT22;9211;48.818;9.312;2022-08-01T01:00:58;23.40;89.70
18173;DHT22;9211;48.818;9.312;2022-08-01T01:03:25;23.40;89.90
18173;DHT22;9211;48.818;9.312;2022-08-01T01:06:00;23.30;90.10
18173;DHT22;9211;48.818;9.312;2022-08-01T01:08:35;23.20;90.20
18173;DHT22;9211;48.818;9.312;2022-08-01T01:11:10;23.10;90.50
18173;DHT22;9211;48.818;9.312;2022-08-01T01:13:41;23.10;90.70
18173;DHT22;9211;48.818;9.312;2022-08-01T01:16:12;22.90;90.80
18173;DHT22;9211;48.818;9.312;2022-08-01T01:18:45;22.90;91.00
18173;DHT22;9211;48.818;9.312;2022-08-01T01:24:20;22.70;91.50
18173;DHT22;9211;48.818;9.312;2022-08-01T01:26:54;22.50;91.80
18173;DHT22;9211;48.818;9.312;2022-08-01T01:29:28;22.50;92.00
18173;DHT22;9211;48.818;9.312;2022-08-01T01:32:02;22.50;92.00
18173;DHT22;9211;48.818;9.312;2022-08-01T01:34:34;22.50;92.20
18173;DHT22;9211;48.818;9.312;2022-08-01T01:37:06;22.40;92.30
18173;DHT22;9211;48.818;9.312;2022-08-01T01:39:35;22.40;92.50
18173;DHT22;9211;48.818;9.312;2022-08-01T01:42:05;22.40;93.00
18173;DHT22;9211;48.818;9.312;2022-08-01T01:44:34;22.40;92.60
18173;DHT22;9211;48.818;9.312;2022-08-01T01:47:02;22.50;92.60
18173;DHT22;9211;48.818;9.312;2022-08-01T01:49:30;22.50;92.50
18173;DHT22;9211;48.818;9.312;2022-08-01T01:51:59;22.60;92.70
18173;DHT22;9211;48.818;9.312;2022-08-01T01:54:30;22.60;92.70
18173;DHT22;9211;48.818;9.312;2022-08-01T01:57:00;22.60;92.60
18173;DHT22;9211;48.818;9.312;2022-08-01T01:59:30;22.60;92.60
18173;DHT22;9211;48.818;9.312;2022-08-01T02:02:02;22.60;92.70
18173;DHT22;9211;48.818;9.312;2022-08-01T02:04:30;22.60;92.80
18173;DHT22;9211;48.818;9.312;2022-08-01T02:06:59;22.70;92.80
18173;DHT22;9211;48.818;9.312;2022-08-01T02:09:28;22.70;92.80
18173;DHT22;9211;48.818;9.312;2022-08-01T02:11:56;22.70;92.90
18173;DHT22;9211;48.818;9.312;2022-08-01T02:14:24;22.70;93.10
18173;DHT22;9211;48.818;9.312;2022-08-01T02:16:55;22.70;93.20
18173;DHT22;9211;48.818;9.312;2022-08-01T02:19:26;22.70;93.20
18173;DHT22;9211;48.818;9.312;2022-08-01T02:21:57;22.70;93.30
18173;DHT22;9211;48.818;9.312;2022-08-01T02:24:33;22.60;93.50
18173;DHT22;9211;48.818;9.312;2022-08-01T02:27:08;22.70;93.60
18173;DHT22;9211;48.818;9.312;2022-08-01T02:29:39;22.60;93.80
18173;DHT22;9211;48.818;9.312;2022-08-01T02:32:08;22.60;93.80
18173;DHT22;9211;48.818;9.312;2022-08-01T02:34:41;22.60;93.90
18173;DHT22;9211;48.818;9.312;2022-08-01T02:37:09;22.60;94.00
18173;DHT22;9211;48.818;9.312;2022-08-01T02:39:38;22.50;94.20
18173;DHT22;9211;48.818;9.312;2022-08-01T02:42:06;22.60;94.30
18173;DHT22;9211;48.818;9.312;2022-08-01T02:44:37;22.50;94.40
18173;DHT22;9211;48.818;9.312;2022-08-01T02:47:05;22.60;94.50
18173;DHT22;9211;48.818;9.312;2022-08-01T02:49:35;22.50;94.60
18173;DHT22;9211;48.818;9.312;2022-08-01T02:52:07;22.50;95.00
18173;DHT22;9211;48.818;9.312;2022-08-01T02:54:36;22.50;94.70
18173;DHT22;9211;48.818;9.312;2022-08-01T02:57:05;22.50;94.70
18173;DHT22;9211;48.818;9.312;2022-08-01T02:59:34;22.40;94.90
18173;DHT22;9211;48.818;9.312;2022-08-01T03:02:04;22.40;94.90
18173;DHT22;9211;48.818;9.312;2022-08-01T03:04:33;22.40;95.00
18173;DHT22;9211;48.818;9.312;2022-08-01T03:07:05;22.30;95.20
18173;DHT22;9211;48.818;9.312;2022-08-01T03:09:35;22.30;95.20
18173;DHT22;9211;48.818;9.312;2022-08-01T03:12:06;22.30;95.50
18173;DHT22;9211;48.818;9.312;2022-08-01T03:14:36;22.20;95.60
18173;DHT22;9211;48.818;9.312;2022-08-01T03:17:06;22.10;95.70
18173;DHT22;9211;48.818;9.312;2022-08-01T03:19:35;22.20;95.90
18173;DHT22;9211;48.818;9.312;2022-08-01T03:22:08;22.20;96.10
18173;DHT22;9211;48.818;9.312;2022-08-01T03:24:42;22.10;96.20
18173;DHT22;9211;48.818;9.312;2022-08-01T03:27:11;22.10;96.30
18173;DHT22;9211;48.818;9.312;2022-08-01T03:29:39;22.10;96.30
18173;DHT22;9211;48.818;9.312;2022-08-01T03:32:08;22.10;96.50
18173;DHT22;9211;48.818;9.312;2022-08-01T03:34:36;22.10;96.60
18173;DHT22;9211;48.818;9.312;2022-08-01T03:37:09;22.20;96.70
18173;DHT22;9211;48.818;9.312;2022-08-01T03:39:43;22.10;96.80
18173;DHT22;9211;48.818;9.312;2022-08-01T03:42:14;22.10;96.90
18173;DHT22;9211;48.818;9.312;2022-08-01T03:44:47;22.10;97.00
18173;DHT22;9211;48.818;9.312;2022-08-01T03:47:16;22.10;97.10
18173;DHT22;9211;48.818;9.312;2022-08-01T03:49:45;22.10;97.20
18173;DHT22;9211;48.818;9.312;2022-08-01T03:52:15;22.10;97.40
18173;DHT22;9211;48.818;9.312;2022-08-01T03:54:46;22.10;97.60
18173;DHT22;9211;48.818;9.312;2022-08-01T03:57:14;22.00;97.70
18173;DHT22;9211;48.818;9.312;2022-08-01T03:59:42;22.00;97.90
18173;DHT22;9211;48.818;9.312;2022-08-01T04:02:11;22.00;98.10
18173;DHT22;9211;48.818;9.312;2022-08-01T04:04:39;22.00;98.20
18173;DHT22;9211;48.818;9.312;2022-08-01T04:07:24;21.90;98.40
18173;DHT22;9211;48.818;9.312;2022-08-01T04:09:52;21.90;98.40
18173;DHT22;9211;48.818;9.312;2022-08-01T04:12:19;21.90;98.70
18173;DHT22;9211;48.818;9.312;2022-08-01T04:14:46;21.90;98.90
18173;DHT22;9211;48.818;9.312;2022-08-01T04:17:14;21.80;98.80
18173;DHT22;9211;48.818;9.312;2022-08-01T04:19:42;21.80;99.00
18173;DHT22;9211;48.818;9.312;2022-08-01T04:22:10;21.70;99.20
18173;DHT22;9211;48.818;9.312;2022-08-01T04:24:40;21.70;99.30
18173;DHT22;9211;48.818;9.312;2022-08-01T04:27:11;21.60;99.40
18173;DHT22;9211;48.818;9.312;2022-08-01T04:29:39;21.60;99.60
18173;DHT22;9211;48.818;9.312;2022-08-01T04:32:09;21.50;99.70
18173;DHT22;9211;48.818;9.312;2022-08-01T04:34:39;21.40;99.90
18173;DHT22;9211;48.818;9.312;2022-08-01T04:37:08;21.30;99.90
18173;DHT22;9211;48.818;9.312;2022-08-01T04:39:38;21.10;99.90
18173;DHT22;9211;48.818;9.312;2022-08-01T04:42:07;20.90;99.90
18173;DHT22;9211;48.818;9.312;2022-08-01T04:44:37;20.80;99.90
18173;DHT22;9211;48.818;9.312;2022-08-01T04:47:05;20.70;99.90
18173;DHT22;9211;48.818;9.312;2022-08-01T04:49:34;20.70;99.90
18173;DHT22;9211;48.818;9.312;2022-08-01T04:52:01;20.70;99.90
18173;DHT22;9211;48.818;9.312;2022-08-01T04:54:34;20.70;99.90
18173;DHT22;9211;48.818;9.312;2022-08-01T04:57:05;20.70;99.90
18173;DHT22;9211;48.818;9.312;2022-08-01T04:59:35;20.70;99.90
18173;DHT22;9211;48.818;9.312;2022-08-01T05:02:07;20.80;99.90
18173;DHT22;9211;48.818;9.312;2022-08-01T05:04:34;20.90;99.90
18173;DHT22;9211;48.818;9.312;2022-08-01T05:07:02;21.00;99.90
18173;DHT22;9211;48.818;9.312;2022-08-01T05:09:30;21.00;99.90
18173;DHT22;9211;48.818;9.312;2022-08-01T05:11:57;21.00;99.90
18173;DHT22;9211;48.818;9.312;2022-08-01T05:14:26;21.10;99.90
18173;DHT22;9211;48.818;9.312;2022-08-01T05:16:53;21.30;99.90
18173;DHT22;9211;48.818;9.312;2022-08-01T05:19:21;21.30;99.90
18173;DHT22;9211;48.818;9.312;2022-08-01T05:21:48;21.40;99.90
18173;DHT22;9211;48.818;9.312;2022-08-01T05:24:15;21.30;99.90
18173;DHT22;9211;48.818;9.312;2022-08-01T05:26:42;21.50;99.90
18173;DHT22;9211;48.818;9.312;2022-08-01T05:29:09;21.50;99.90
18173;DHT22;9211;48.818;9.312;2022-08-01T05:31:38;21.50;99.90
18173;DHT22;9211;48.818;9.312;2022-08-01T05:34:05;21.50;99.90
18173;DHT22;9211;48.818;9.312;2022-08-01T05:36:32;21.50;99.90
18173;DHT22;9211;48.818;9.312;2022-08-01T05:38:59;21.50;99.90
18173;DHT22;9211;48.818;9.312;2022-08-01T05:41:26;21.50;99.90
18173;DHT22;9211;48.818;9.312;2022-08-01T05:43:53;21.60;99.90
18173;DHT22;9211;48.818;9.312;2022-08-01T05:46:20;21.70;99.90
18173;DHT22;9211;48.818;9.312;2022-08-01T05:48:48;21.70;99.90
18173;DHT22;9211;48.818;9.312;2022-08-01T05:51:15;21.80;99.90
18173;DHT22;9211;48.818;9.312;2022-08-01T05:53:43;21.90;99.90
18173;DHT22;9211;48.818;9.312;2022-08-01T05:56:09;22.00;99.90
18173;DHT22;9211;48.818;9.312;2022-08-01T05:58:37;22.10;99.90
18173;DHT22;9211;48.818;9.312;2022-08-01T06:01:04;22.20;99.90
18173;DHT22;9211;48.818;9.312;2022-08-01T06:03:31;22.20;99.90
18173;DHT22;9211;48.818;9.312;2022-08-01T06:06:00;22.30;99.90
18173;DHT22;9211;48.818;9.312;2022-08-01T06:08:27;22.40;99.90
18173;DHT22;9211;48.818;9.312;2022-08-01T06:10:55;22.40;99.90
18173;DHT22;9211;48.818;9.312;2022-08-01T06:13:22;22.50;99.90
18173;DHT22;9211;48.818;9.312;2022-08-01T06:15:49;22.60;99.90
18173;DHT22;9211;48.818;9.312;2022-08-01T06:18:16;22.60;99.90
18173;DHT22;9211;48.818;9.312;2022-08-01T06:20:44;22.70;99.90
18173;DHT22;9211;48.818;9.312;2022-08-01T06:23:12;22.70;99.90
18173;DHT22;9211;48.818;9.312;2022-08-01T06:25:41;22.80;99.90
18173;DHT22;9211;48.818;9.312;2022-08-01T06:28:09;22.80;99.90
18173;DHT22;9211;48.818;9.312;2022-08-01T06:30:36;22.90;99.90
18173;DHT22;9211;48.818;9.312;2022-08-01T06:33:03;22.90;99.90
18173;DHT22;9211;48.818;9.312;2022-08-01T06:35:30;22.90;99.90
18173;DHT22;9211;48.818;9.312;2022-08-01T06:37:59;23.00;99.90
18173;DHT22;9211;48.818;9.312;2022-08-01T06:40:28;23.00;99.90
18173;DHT22;9211;48.818;9.312;2022-08-01T06:42:55;23.10;99.90
18173;DHT22;9211;48.818;9.312;2022-08-01T06:45:22;23.10;99.90
18173;DHT22;9211;48.818;9.312;2022-08-01T06:47:50;23.10;99.90
18173;DHT22;9211;48.818;9.312;2022-08-01T06:50:17;23.20;99.90
18173;DHT22;9211;48.818;9.312;2022-08-01T06:52:44;23.20;99.90
18173;DHT22;9211;48.818;9.312;2022-08-01T06:55:11;23.20;99.90
18173;DHT22;9211;48.818;9.312;2022-08-01T06:57:47;23.30;99.90
18173;DHT22;9211;48.818;9.312;2022-08-01T07:00:14;23.20;99.90
18173;DHT22;9211;48.818;9.312;2022-08-01T07:02:44;23.40;99.90
18173;DHT22;9211;48.818;9.312;2022-08-01T07:05:12;23.50;99.90
18173;DHT22;9211;48.818;9.312;2022-08-01T07:07:39;23.50;99.90
18173;DHT22;9211;48.818;9.312;2022-08-01T07:10:06;23.50;99.90
18173;DHT22;9211;48.818;9.312;2022-08-01T07:12:34;23.60;99.90
18173;DHT22;9211;48.818;9.312;2022-08-01T07:15:05;23.50;99.90
18173;DHT22;9211;48.818;9.312;2022-08-01T07:17:36;23.60;99.90
18173;DHT22;9211;48.818;9.312;2022-08-01T07:20:05;23.60;99.90
18173;DHT22;9211;48.818;9.312;2022-08-01T07:22:32;23.70;99.90
18173;DHT22;9211;48.818;9.312;2022-08-01T07:24:59;23.70;99.90
18173;DHT22;9211;48.818;9.312;2022-08-01T07:27:26;23.70;99.90
18173;DHT22;9211;48.818;9.312;2022-08-01T07:29:53;23.80;99.90
18173;DHT22;9211;48.818;9.312;2022-08-01T07:32:22;23.80;99.90
18173;DHT22;9211;48.818;9.312;2022-08-01T07:34:49;23.80;99.90
18173;DHT22;9211;48.818;9.312;2022-08-01T07:37:16;23.90;99.90
18173;DHT22;9211;48.818;9.312;2022-08-01T07:39:43;23.90;99.90
18173;DHT22;9211;48.818;9.312;2022-08-01T07:42:10;23.90;99.90
18173;DHT22;9211;48.818;9.312;2022-08-01T07:44:37;24.00;99.90
18173;DHT22;9211;48.818;9.312;2022-08-01T07:47:05;24.00;99.90
18173;DHT22;9211;48.818;9.312;2022-08-01T07:49:34;24.00;99.90
18173;DHT22;9211;48.818;9.312;2022-08-01T07:52:02;24.00;99.90
18173;DHT22;9211;48.818;9.312;2022-08-01T07:54:29;23.90;99.90
18173;DHT22;9211;48.818;9.312;2022-08-01T07:56:56;24.00;99.90
18173;DHT22;9211;48.818;9.312;2022-08-01T07:59:23;24.00;99.90
18173;DHT22;9211;48.818;9.312;2022-08-01T08:01:50;24.00;99.90
18173;DHT22;9211;48.818;9.312;2022-08-01T08:04:17;24.10;99.90
18173;DHT22;9211;48.818;9.312;2022-08-01T08:06:45;24.10;99.90
18173;DHT22;9211;48.818;9.312;2022-08-01T08:09:14;24.20;99.90
18173;DHT22;9211;48.818;9.312;2022-08-01T08:11:42;24.30;99.90
18173;DHT22;9211;48.818;9.312;2022-08-01T08:14:10;24.40;99.90
18173;DHT22;9211;48.818;9.312;2022-08-01T08:16:37;24.50;99.90
18173;DHT22;9211;48.818;9.312;2022-08-01T08:19:04;24.50;99.90
18173;DHT22;9211;48.818;9.312;2022-08-01T08:21:32;24.50;99.90
18173;DHT22;9211;48.818;9.312;2022-08-01T08:24:00;24.50;99.90
18173;DHT22;9211;48.818;9.312;2022-08-01T08:26:45;24.60;99.90
18173;DHT22;9211;48.818;9.312;2022-08-01T08:29:12;24.60;99.90
18173;DHT22;9211;48.818;9.312;2022-08-01T08:31:39;24.60;99.90
18173;DHT22;9211;48.818;9.312;2022-08-01T08:34:07;24.60;99.90
18173;DHT22;9211;48.818;9.312;2022-08-01T08:36:34;24.60;99.90
18173;DHT22;9211;48.818;9.312;2022-08-01T08:39:03;24.70;99.90
18173;DHT22;9211;48.818;9.312;2022-08-01T08:41:30;24.80;99.90
18173;DHT22;9211;48.818;9.312;2022-08-01T08:43:57;24.90;99.90
18173;DHT22;9211;48.818;9.312;2022-08-01T08:46:27;24.90;99.90
18173;DHT22;9211;48.818;9.312;2022-08-01T08:48:55;24.90;99.90
18173;DHT22;9211;48.818;9.312;2022-08-01T08:51:24;25.00;99.90
18173;DHT22;9211;48.818;9.312;2022-08-01T08:53:53;24.90;99.90
18173;DHT22;9211;48.818;9.312;2022-08-01T08:56:24;24.90;99.90
18173;DHT22;9211;48.818;9.312;2022-08-01T08:58:52;24.90;99.90
18173;DHT22;9211;48.818;9.312;2022-08-01T09:01:19;24.90;99.90
18173;DHT22;9211;48.818;9.312;2022-08-01T09:03:47;24.90;99.90
18173;DHT22;9211;48.818;9.312;2022-08-01T09:06:14;25.00;99.90
18173;DHT22;9211;48.818;9.312;2022-08-01T09:08:42;25.10;99.90
18173;DHT22;9211;48.818;9.312;2022-08-01T09:11:10;25.20;99.90
18173;DHT22;9211;48.818;9.312;2022-08-01T09:13:38;25.30;99.90
18173;DHT22;9211;48.818;9.312;2022-08-01T09:16:05;25.30;99.90
18173;DHT22;9211;48.818;9.312;2022-08-01T09:18:34;25.40;99.90
18173;DHT22;9211;48.818;9.312;2022-08-01T09:21:13;25.40;99.90
18173;DHT22;9211;48.818;9.312;2022-08-01T09:23:43;25.40;99.90
18173;DHT22;9211;48.818;9.312;2022-08-01T09:26:12;25.20;99.90
18173;DHT22;9211;48.818;9.312;2022-08-01T09:28:43;25.10;99.90
18173;DHT22;9211;48.818;9.312;2022-08-01T09:31:13;25.20;99.90
18173;DHT22;9211;48.818;9.312;2022-08-01T09:33:50;25.20;99.90
18173;DHT22;9211;48.818;9.312;2022-08-01T09:36:18;25.20;99.90
18173;DHT22;9211;48.818;9.312;2022-08-01T09:38:45;25.30;99.90
18173;DHT22;9211;48.818;9.312;2022-08-01T09:41:12;25.30;99.90
18173;DHT22;9211;48.818;9.312;2022-08-01T09:43:39;25.50;99.90
18173;DHT22;9211;48.818;9.312;2022-08-01T09:46:11;25.50;99.90
18173;DHT22;9211;48.818;9.312;2022-08-01T09:48:38;25.40;99.90
18173;DHT22;9211;48.818;9.312;2022-08-01T09:51:06;25.60;99.90
18173;DHT22;9211;48.818;9.312;2022-08-01T09:53:41;25.70;99.90
18173;DHT22;9211;48.818;9.312;2022-08-01T09:56:10;25.70;99.90
18173;DHT22;9211;48.818;9.312;2022-08-01T09:58:52;25.70;99.90
18173;DHT22;9211;48.818;9.312;2022-08-01T10:01:22;25.70;99.90
18173;DHT22;9211;48.818;9.312;2022-08-01T10:04:05;25.80;99.90
18173;DHT22;9211;48.818;9.312;2022-08-01T10:06:32;25.80;99.90
18173;DHT22;9211;48.818;9.312;2022-08-01T10:08:59;25.90;99.90
18173;DHT22;9211;48.818;9.312;2022-08-01T10:11:27;26.00;99.90
18173;DHT22;9211;48.818;9.312;2022-08-01T10:13:56;26.10;99.90
18173;DHT22;9211;48.818;9.312;2022-08-01T10:16:27;26.10;99.60
18173;DHT22;9211;48.818;9.312;2022-08-01T10:18:55;26.20;99.60
18173;DHT22;9211;48.818;9.312;2022-08-01T10:21:23;26.30;99.60
18173;DHT22;9211;48.818;9.312;2022-08-01T10:23:54;26.40;99.50
18173;DHT22;9211;48.818;9.312;2022-08-01T10:26:25;26.60;99.50
18173;DHT22;9211;48.818;9.312;2022-08-01T10:28:54;26.60;98.90
18173;DHT22;9211;48.818;9.312;2022-08-01T10:31:23;26.60;98.40
18173;DHT22;9211;48.818;9.312;2022-08-01T10:33:51;26.50;98.20
18173;DHT22;9211;48.818;9.312;2022-08-01T10:36:19;26.50;98.40
18173;DHT22;9211;48.818;9.312;2022-08-01T10:38:47;26.40;97.80
18173;DHT22;9211;48.818;9.312;2022-08-01T10:41:14;26.40;97.90
18173;DHT22;9211;48.818;9.312;2022-08-01T10:43:42;26.50;97.60
18173;DHT22;9211;48.818;9.312;2022-08-01T10:46:10;26.50;97.80
18173;DHT22;9211;48.818;9.312;2022-08-01T10:48:45;26.40;97.50
18173;DHT22;9211;48.818;9.312;2022-08-01T10:51:14;26.50;97.60
18173;DHT22;9211;48.818;9.312;2022-08-01T10:53:46;26.60;97.40
18173;DHT22;9211;48.818;9.312;2022-08-01T10:56:14;26.80;97.40
18173;DHT22;9211;48.818;9.312;2022-08-01T10:58:43;26.80;96.90
18173;DHT22;9211;48.818;9.312;2022-08-01T11:01:17;26.80;97.00
18173;DHT22;9211;48.818;9.312;2022-08-01T11:04:04;26.80;97.00
18173;DHT22;9211;48.818;9.312;2022-08-01T11:06:40;26.90;96.90
18173;DHT22;9211;48.818;9.312;2022-08-01T11:09:30;26.90;96.60
18173;DHT22;9211;48.818;9.312;2022-08-01T11:12:02;26.80;96.60
18173;DHT22;9211;48.818;9.312;2022-08-01T11:14:31;26.90;96.90
18173;DHT22;9211;48.818;9.312;2022-08-01T11:17:32;27.10;96.30
18173;DHT22;9211;48.818;9.312;2022-08-01T11:20:09;27.20;96.20
18173;DHT22;9211;48.818;9.312;2022-08-01T11:26:11;27.50;94.90
18173;DHT22;9211;48.818;9.312;2022-08-01T11:28:39;27.60;94.80
18173;DHT22;9211;48.818;9.312;2022-08-01T11:31:28;27.90;94.90
18173;DHT22;9211;48.818;9.312;2022-08-01T11:33:57;27.90;94.30
18173;DHT22;9211;48.818;9.312;2022-08-01T11:36:26;27.70;93.80
18173;DHT22;9211;48.818;9.312;2022-08-01T11:39:13;27.60;94.00
18173;DHT22;9211;48.818;9.312;2022-08-01T11:41:41;27.70;93.80
18173;DHT22;9211;48.818;9.312;2022-08-01T11:44:10;27.80;93.30
18173;DHT22;9211;48.818;9.312;2022-08-01T11:49:44;28.00;93.50
18173;DHT22;9211;48.818;9.312;2022-08-01T11:52:14;28.10;93.50
18173;DHT22;9211;48.818;9.312;2022-08-01T11:54:43;28.20;93.20
18173;DHT22;9211;48.818;9.312;2022-08-01T11:57:17;28.20;93.40
18173;DHT22;9211;48.818;9.312;2022-08-01T11:59:46;28.30;93.40
18173;DHT22;9211;48.818;9.312;2022-08-01T12:02:25;28.20;92.80
18173;DHT22;9211;48.818;9.312;2022-08-01T12:04:55;28.10;92.80
18173;DHT22;9211;48.818;9.312;2022-08-01T12:07:25;28.10;93.20
18173;DHT22;9211;48.818;9.312;2022-08-01T12:10:00;28.00;92.60
18173;DHT22;9211;48.818;9.312;2022-08-01T12:12:28;28.10;92.90
18173;DHT22;9211;48.818;9.312;2022-08-01T12:14:57;28.20;93.00
18173;DHT22;9211;48.818;9.312;2022-08-01T12:17:35;28.30;92.60
18173;DHT22;9211;48.818;9.312;2022-08-01T12:20:04;28.30;92.60
18173;DHT22;9211;48.818;9.312;2022-08-01T12:22:33;28.30;92.40
18173;DHT22;9211;48.818;9.312;2022-08-01T12:25:07;28.30;92.20
18173;DHT22;9211;48.818;9.312;2022-08-01T12:27:36;28.40;92.10
18173;DHT22;9211;48.818;9.312;2022-08-01T12:30:06;28.70;92.40
18173;DHT22;9211;48.818;9.312;2022-08-01T12:32:35;28.90;92.40
18173;DHT22;9211;48.818;9.312;2022-08-01T12:35:04;29.00;91.20
18173;DHT22;9211;48.818;9.312;2022-08-01T12:37:35;29.00;91.00
18173;DHT22;9211;48.818;9.312;2022-08-01T12:40:09;29.10;90.90
18173;DHT22;9211;48.818;9.312;2022-08-01T12:42:37;29.10;90.70
18173;DHT22;9211;48.818;9.312;2022-08-01T12:45:07;28.90;90.70
18173;DHT22;9211;48.818;9.312;2022-08-01T12:47:35;28.80;91.10
18173;DHT22;9211;48.818;9.312;2022-08-01T12:50:04;28.60;91.40
18173;DHT22;9211;48.818;9.312;2022-08-01T12:52:33;28.50;91.40
18173;DHT22;9211;48.818;9.312;2022-08-01T12:55:06;28.50;91.70
18173;DHT22;9211;48.818;9.312;2022-08-01T12:57:35;28.50;91.30
18173;DHT22;9211;48.818;9.312;2022-08-01T13:00:08;28.50;91.30
18173;DHT22;9211;48.818;9.312;2022-08-01T13:02:36;28.50;91.40
18173;DHT22;9211;48.818;9.312;2022-08-01T13:05:04;28.40;91.50
18173;DHT22;9211;48.818;9.312;2022-08-01T13:07:41;28.40;91.60
18173;DHT22;9211;48.818;9.312;2022-08-01T13:10:09;28.40;91.50
18173;DHT22;9211;48.818;9.312;2022-08-01T13:12:38;28.30;91.10
18173;DHT22;9211;48.818;9.312;2022-08-01T13:15:22;28.20;91.40
18173;DHT22;9211;48.818;9.312;2022-08-01T13:17:50;28.20;91.50
18173;DHT22;9211;48.818;9.312;2022-08-01T13:20:25;28.30;91.40
18173;DHT22;9211;48.818;9.312;2022-08-01T13:22:54;28.50;91.30
18173;DHT22;9211;48.818;9.312;2022-08-01T13:25:22;28.70;91.30
18173;DHT22;9211;48.818;9.312;2022-08-01T13:27:49;28.80;90.90
18173;DHT22;9211;48.818;9.312;2022-08-01T13:30:17;28.80;90.70
18173;DHT22;9211;48.818;9.312;2022-08-01T13:32:56;28.60;90.30
18173;DHT22;9211;48.818;9.312;2022-08-01T13:35:23;28.60;90.60
18173;DHT22;9211;48.818;9.312;2022-08-01T13:37:50;28.60;90.50
18173;DHT22;9211;48.818;9.312;2022-08-01T13:40:25;28.50;90.50
18173;DHT22;9211;48.818;9.312;2022-08-01T13:42:53;28.60;90.60
18173;DHT22;9211;48.818;9.312;2022-08-01T13:45:22;28.70;90.60
18173;DHT22;9211;48.818;9.312;2022-08-01T13:47:49;28.70;90.50
18173;DHT22;9211;48.818;9.312;2022-08-01T13:50:16;28.80;90.30
18173;DHT22;9211;48.818;9.312;2022-08-01T13:52:44;29.00;90.10
18173;DHT22;9211;48.818;9.312;2022-08-01T13:55:11;29.10;89.70
18173;DHT22;9211;48.818;9.312;2022-08-01T13:57:39;29.20;89.30
18173;DHT22;9211;48.818;9.312;2022-08-01T14:00:08;29.30;88.70
18173;DHT22;9211;48.818;9.312;2022-08-01T14:02:39;29.20;88.80
18173;DHT22;9211;48.818;9.312;2022-08-01T14:05:07;29.10;89.50
18173;DHT22;9211;48.818;9.312;2022-08-01T14:07:34;29.10;89.70
18173;DHT22;9211;48.818;9.312;2022-08-01T14:10:01;29.10;90.00
18173;DHT22;9211;48.818;9.312;2022-08-01T14:12:28;29.10;90.00
18173;DHT22;9211;48.818;9.312;2022-08-01T14:14:57;29.20;89.10
18173;DHT22;9211;48.818;9.312;2022-08-01T14:17:24;29.20;89.40
18173;DHT22;9211;48.818;9.312;2022-08-01T14:19:51;29.30;89.60
18173;DHT22;9211;48.818;9.312;2022-08-01T14:22:18;29.40;89.30
18173;DHT22;9211;48.818;9.312;2022-08-01T14:24:47;29.40;89.50
18173;DHT22;9211;48.818;9.312;2022-08-01T14:27:15;29.40;89.40
18173;DHT22;9211;48.818;9.312;2022-08-01T14:29:42;29.50;89.60
18173;DHT22;9211;48.818;9.312;2022-08-01T14:32:13;29.30;89.20
18173;DHT22;9211;48.818;9.312;2022-08-01T14:34:40;29.30;88.80
18173;DHT22;9211;48.818;9.312;2022-08-01T14:37:07;29.20;89.20
18173;DHT22;9211;48.818;9.312;2022-08-01T14:39:34;29.10;89.70
18173;DHT22;9211;48.818;9.312;2022-08-01T14:42:01;29.20;89.70
18173;DHT22;9211;48.818;9.312;2022-08-01T14:44:28;29.20;89.70
18173;DHT22;9211;48.818;9.312;2022-08-01T14:46:58;29.20;89.60
18173;DHT22;9211;48.818;9.312;2022-08-01T14:49:27;29.20;89.30
18173;DHT22;9211;48.818;9.312;2022-08-01T14:51:54;29.20;89.50
18173;DHT22;9211;48.818;9.312;2022-08-01T14:54:21;29.20;89.40
18173;DHT22;9211;48.818;9.312;2022-08-01T14:56:48;29.10;89.50
18173;DHT22;9211;48.818;9.312;2022-08-01T14:59:17;29.10;89.90
18173;DHT22;9211;48.818;9.312;2022-08-01T15:01:44;29.10;90.00
18173;DHT22;9211;48.818;9.312;2022-08-01T15:04:12;29.30;90.00
18173;DHT22;9211;48.818;9.312;2022-08-01T15:06:41;29.50;89.60
18173;DHT22;9211;48.818;9.312;2022-08-01T15:09:08;29.80;89.00
18173;DHT22;9211;48.818;9.312;2022-08-01T15:11:36;30.20;88.30
18173;DHT22;9211;48.818;9.312;2022-08-01T15:14:03;30.40;85.80
18173;DHT22;9211;48.818;9.312;2022-08-01T15:16:47;30.30;85.50
18173;DHT22;9211;48.818;9.312;2022-08-01T15:19:14;30.20;85.70
18173;DHT22;9211;48.818;9.312;2022-08-01T15:21:44;30.10;85.30
18173;DHT22;9211;48.818;9.312;2022-08-01T15:24:11;30.30;84.60
18173;DHT22;9211;48.818;9.312;2022-08-01T15:26:38;30.40;84.10
18173;DHT22;9211;48.818;9.312;2022-08-01T15:29:05;30.30;83.30
18173;DHT22;9211;48.818;9.312;2022-08-01T15:31:32;30.10;83.80
18173;DHT22;9211;48.818;9.312;2022-08-01T15:34:00;30.00;83.70
18173;DHT22;9211;48.818;9.312;2022-08-01T15:36:26;30.00;84.10
18173;DHT22;9211;48.818;9.312;2022-08-01T15:38:55;30.10;84.10
18173;DHT22;9211;48.818;9.312;2022-08-01T15:41:22;30.10;84.20
18173;DHT22;9211;48.818;9.312;2022-08-01T15:43:49;30.10;83.80
18173;DHT22;9211;48.818;9.312;2022-08-01T15:46:16;30.00;83.70
18173;DHT22;9211;48.818;9.312;2022-08-01T15:48:45;30.00;83.40
18173;DHT22;9211;48.818;9.312;2022-08-01T15:51:12;30.00;83.60
18173;DHT22;9211;48.818;9.312;2022-08-01T15:53:40;29.90;83.30
18173;DHT22;9211;48.818;9.312;2022-08-01T15:56:09;30.00;83.40
18173;DHT22;9211;48.818;9.312;2022-08-01T15:58:36;30.00;83.70
18173;DHT22;9211;48.818;9.312;2022-08-01T16:01:04;30.00;83.00
18173;DHT22;9211;48.818;9.312;2022-08-01T16:03:31;30.10;83.00
18173;DHT22;9211;48.818;9.312;2022-08-01T16:05:58;30.10;83.50
18173;DHT22;9211;48.818;9.312;2022-08-01T16:08:25;29.90;82.70